Collins Bay, Canada
Current Conditions -  °F | °C
As of 9:00 AM on Wednesday 28 Jan 2015 (Local Time) from CYGK Reporting Station
Few Clouds Few Clouds  
Wind Chill: -3°   Ceiling: Unl
Heat Index:   Visibility: 15mi
Dew Point: -6°   Wind: 6mph
Humidity: 56%   Direction: 310°NW
Pressure: 30.24"   Gusts: NA
Location:  44.23°N, 76.62°W
Report Text: CYGK 281400Z 31005KT 15SM FEW140 M14/M21 A3024 RMK AC1 AC TR SLP247
Loading
Personal Weather Stations






























Interactive Weather Map New forecast layout! Learn more

10-Day Weather Forecast

Advertisements
Track Severe Weather on mobile